Inlet Beach, Florida
Current Conditions -  °F | °C
As of 7:53 AM on Monday 20 Oct 2014 (Local Time) from KECP Reporting Station
Scattered Clouds Scattered Clouds  
Wind Chill: 60°   Ceiling: Unl
Heat Index: 60°   Visibility: 10mi
Dew Point: 55°   Wind: 6mph
Humidity: 83%   Direction: 50°NE
Pressure: 30.05"   Gusts: NA
Location:  30.3525°N, 85.9093°W
Report Text: KECP 201253Z 05005KT 10SM SCT021 16/13 A3005 RMK AO2 SLP186 T01560128
Loading
Personal Weather Stations






























Interactive Weather Map
Tropical Storm Tracking
New forecast layout! Learn more

10-Day Weather Forecast

Advertisements
Track Severe Weather on mobile